createdAt,value
2022-09-24T00:00:16.785Z,19.45
2022-09-24T00:05:43.195Z,21.95
2022-09-24T00:10:50.930Z,15.40
2022-09-24T00:15:56.809Z,20.20
2022-09-24T00:21:12.138Z,21.55
2022-09-24T00:26:52.187Z,19.17
2022-09-24T00:31:58.138Z,22.15
2022-09-24T00:37:04.251Z,17.42
2022-09-24T00:42:12.315Z,16.95
2022-09-24T00:47:30.461Z,16.92
2022-09-24T00:52:40.081Z,21.38
2022-09-24T00:57:49.314Z,16.35
2022-09-24T01:03:01.431Z,18.80
2022-09-24T01:08:08.678Z,19.02
2022-09-24T01:13:51.954Z,17.42
2022-09-24T01:19:13.512Z,21.02
2022-09-24T01:25:00.063Z,17.95
2022-09-24T01:30:10.825Z,22.00
2022-09-24T01:35:22.342Z,21.58
2022-09-24T01:40:31.894Z,29.33
2022-09-24T01:45:41.708Z,21.02
2022-09-24T01:50:56.695Z,26.30
2022-09-24T01:56:09.825Z,27.58
2022-09-24T02:01:24.175Z,18.10
2022-09-24T02:06:36.509Z,25.33
2022-09-24T02:11:42.690Z,20.60
2022-09-24T02:16:52.094Z,27.52
2022-09-24T02:21:59.050Z,24.63
2022-09-24T02:27:05.136Z,21.15
2022-09-24T02:32:17.065Z,22.05
2022-09-24T02:37:26.103Z,18.92
2022-09-24T02:42:32.544Z,13.90
2022-09-24T02:47:40.904Z,15.55
2022-09-24T02:52:47.051Z,16.07
2022-09-24T02:57:52.951Z,46.58
2022-09-24T03:03:00.528Z,14.88
2022-09-24T03:08:07.821Z,20.08
2022-09-24T03:13:13.858Z,21.00
2022-09-24T03:18:21.431Z,14.43
2022-09-24T03:23:28.352Z,17.88
2022-09-24T03:28:34.634Z,15.95
2022-09-24T03:33:44.043Z,15.95
2022-09-24T03:38:52.451Z,21.15
2022-09-24T03:43:58.532Z,18.17
2022-09-24T03:49:06.005Z,16.23
2022-09-24T03:54:11.992Z,23.63
2022-09-24T03:59:18.138Z,15.80
2022-09-24T04:04:25.839Z,16.98
2022-09-24T04:09:32.207Z,13.40
2022-09-24T04:14:38.480Z,13.55
2022-09-24T04:19:45.819Z,14.63
2022-09-24T04:24:52.916Z,13.38
2022-09-24T04:29:58.779Z,13.10
2022-09-24T04:35:07.697Z,14.50
2022-09-24T04:40:14.342Z,11.52
2022-09-24T04:45:21.264Z,12.80
2022-09-24T04:50:33.574Z,15.35
2022-09-24T04:55:39.813Z,16.40
2022-09-24T05:00:46.058Z,18.50
2022-09-24T05:05:53.586Z,12.55
2022-09-24T05:11:00.360Z,14.90
2022-09-24T05:16:06.718Z,12.10
2022-09-24T05:21:14.183Z,14.70
2022-09-24T05:26:37.596Z,11.68
2022-09-24T05:31:43.579Z,12.25
2022-09-24T05:36:51.081Z,10.80
2022-09-24T05:41:57.788Z,11.25
2022-09-24T05:47:03.783Z,15.85
2022-09-24T05:52:11.368Z,22.63
2022-09-24T05:57:17.651Z,16.73
2022-09-24T06:02:25.027Z,16.75
2022-09-24T06:07:32.588Z,23.90
2022-09-24T06:12:38.593Z,19.10
2022-09-24T06:17:44.686Z,16.73
2022-09-24T06:22:52.158Z,15.88
2022-09-24T06:28:00.920Z,18.13
2022-09-24T06:33:10.111Z,15.23
2022-09-24T06:38:20.054Z,16.95
2022-09-24T06:43:25.969Z,13.60
2022-09-24T06:48:32.672Z,21.00
2022-09-24T06:53:40.057Z,19.05
2022-09-24T06:58:46.843Z,19.48
2022-09-24T07:03:53.130Z,27.15
2022-09-24T07:09:01.538Z,31.92
2022-09-24T07:14:07.954Z,23.33
2022-09-24T07:19:14.015Z,20.08
2022-09-24T07:24:21.608Z,23.98
2022-09-24T07:29:27.970Z,20.15
2022-09-24T07:34:35.016Z,27.15
2022-09-24T07:39:42.599Z,20.45
2022-09-24T07:44:48.983Z,17.85
2022-09-24T07:49:55.255Z,13.35
2022-09-24T07:55:02.765Z,15.57
2022-09-24T08:00:13.353Z,12.20
2022-09-24T08:05:19.715Z,12.20
2022-09-24T08:10:29.470Z,12.68
2022-09-24T08:15:36.013Z,10.13
2022-09-24T08:20:42.032Z,10.52
2022-09-24T08:25:49.735Z,12.27
2022-09-24T08:31:00.906Z,9.00
2022-09-24T08:36:10.574Z,11.00
2022-09-24T08:42:02.600Z,11.75
2022-09-24T08:47:25.470Z,6.85
2022-09-24T08:53:03.487Z,7.72
2022-09-24T08:58:44.316Z,6.30
2022-09-24T09:03:58.192Z,7.82
2022-09-24T09:09:12.827Z,6.13
2022-09-24T09:14:30.606Z,4.82
2022-09-24T09:19:39.656Z,5.10
2022-09-24T09:24:51.052Z,4.93
2022-09-24T09:30:07.168Z,4.22
2022-09-24T09:35:23.602Z,3.97
2022-09-24T09:40:38.106Z,3.75
2022-09-24T09:46:01.011Z,4.38
2022-09-24T09:51:08.370Z,4.38
2022-09-24T09:56:14.674Z,3.17
2022-09-24T10:01:22.158Z,4.20
2022-09-24T10:06:31.567Z,7.82
2022-09-24T10:11:38.049Z,6.55
2022-09-24T10:16:53.525Z,15.88
2022-09-24T10:22:08.817Z,8.23
2022-09-24T10:27:22.689Z,12.30
2022-09-24T10:32:31.206Z,2.13
2022-09-24T10:37:37.504Z,3.33
2022-09-24T10:42:43.405Z,7.35
2022-09-24T10:47:59.152Z,4.25
2022-09-24T10:53:14.458Z,3.90
2022-09-24T10:58:43.228Z,1.38
2022-09-24T11:09:38.735Z,1.88
2022-09-24T11:15:08.590Z,2.65
2022-09-24T11:20:38.486Z,3.55
2022-09-24T11:25:56.153Z,1.48
2022-09-24T11:31:13.858Z,1.65
2022-09-24T11:36:43.409Z,1.35
2022-09-24T11:42:03.081Z,1.15
2022-09-24T11:47:26.511Z,1.60
2022-09-24T11:52:40.873Z,1.60
2022-09-24T11:57:54.536Z,1.73
2022-09-24T12:03:07.789Z,1.70
2022-09-24T12:08:19.239Z,3.83
2022-09-24T12:13:31.675Z,6.70
2022-09-24T12:18:47.149Z,2.33
2022-09-24T12:24:02.791Z,1.50
2022-09-24T12:29:55.366Z,1.10
2022-09-24T12:35:13.441Z,1.52
2022-09-24T12:40:54.660Z,1.63
2022-09-24T12:46:04.320Z,2.70
2022-09-24T12:51:12.058Z,6.15
2022-09-24T12:56:28.164Z,5.78
2022-09-24T13:01:36.076Z,2.53
2022-09-24T13:06:45.344Z,7.82
2022-09-24T13:12:21.545Z,5.68
2022-09-24T13:17:27.686Z,4.32
2022-09-24T13:22:36.284Z,2.83
2022-09-24T13:27:45.611Z,2.35
2022-09-24T13:32:58.980Z,4.00
2022-09-24T13:38:15.113Z,4.07
2022-09-24T13:43:44.285Z,2.92
2022-09-24T13:48:54.511Z,1.80
2022-09-24T13:54:09.746Z,6.20
2022-09-24T13:59:18.387Z,5.55
2022-09-24T14:04:25.223Z,10.48
2022-09-24T14:09:36.526Z,3.47
2022-09-24T14:19:58.446Z,2.15
2022-09-24T14:25:09.416Z,2.45
2022-09-24T14:30:23.880Z,3.45
2022-09-24T14:35:35.025Z,1.98
2022-09-24T14:40:44.983Z,1.48
2022-09-24T14:45:53.718Z,1.33
2022-09-24T14:51:00.054Z,1.80
2022-09-24T14:56:21.742Z,3.60
2022-09-24T15:01:35.384Z,1.48
2022-09-24T15:06:47.245Z,1.98
2022-09-24T15:11:55.571Z,1.25
2022-09-24T15:17:23.650Z,2.75
2022-09-24T15:22:31.484Z,2.05
2022-09-24T15:27:42.422Z,2.20
2022-09-24T15:32:51.621Z,2.38
2022-09-24T15:38:00.673Z,2.22
2022-09-24T15:43:17.182Z,5.25
2022-09-24T15:48:25.052Z,8.10
2022-09-24T15:53:32.325Z,5.18
2022-09-24T15:58:39.077Z,8.00
2022-09-24T16:03:47.416Z,13.55
2022-09-24T16:08:55.889Z,13.65
2022-09-24T16:14:05.998Z,12.27
2022-09-24T16:19:13.625Z,16.55
2022-09-24T16:24:20.577Z,17.75
2022-09-24T16:29:26.822Z,17.98
2022-09-24T16:34:34.793Z,21.60
2022-09-24T16:39:41.087Z,16.42
2022-09-24T16:44:48.294Z,17.70
2022-09-24T16:49:56.792Z,16.17
2022-09-24T16:55:02.898Z,19.50
2022-09-24T17:00:12.031Z,32.53
2022-09-24T17:05:19.915Z,28.17
2022-09-24T17:10:26.133Z,102.40
2022-09-24T17:15:32.283Z,72.88
2022-09-24T17:20:39.815Z,132.13
2022-09-24T17:25:45.950Z,108.68
2022-09-24T17:30:53.698Z,111.38
2022-09-24T17:36:05.921Z,114.75
2022-09-24T17:41:14.550Z,90.28
2022-09-24T17:46:23.644Z,87.97
2022-09-24T17:51:34.313Z,97.47
2022-09-24T17:56:40.850Z,90.78
2022-09-24T18:01:48.179Z,116.47
2022-09-24T18:06:56.096Z,102.88
2022-09-24T18:12:02.798Z,105.00
2022-09-24T18:17:09.050Z,126.53
2022-09-24T18:22:16.747Z,115.00
2022-09-24T18:27:25.767Z,133.68
2022-09-24T18:32:32.408Z,149.77
2022-09-24T18:37:40.573Z,153.57
2022-09-24T18:42:46.853Z,163.23
2022-09-24T18:47:53.641Z,147.75
2022-09-24T18:53:01.604Z,104.95
2022-09-24T18:58:08.301Z,133.30
2022-09-24T19:03:14.711Z,121.07
2022-09-24T19:08:25.253Z,127.10
2022-09-24T19:13:32.326Z,133.55
2022-09-24T19:18:39.507Z,134.77
2022-09-24T19:23:49.496Z,135.05
2022-09-24T19:28:56.662Z,145.73
2022-09-24T19:34:03.763Z,122.97
2022-09-24T19:39:11.916Z,128.38
2022-09-24T19:44:18.075Z,121.68
2022-09-24T19:49:24.912Z,129.35
2022-09-24T19:54:32.975Z,125.38
2022-09-24T19:59:39.471Z,119.63
2022-09-24T20:04:46.720Z,124.68
2022-09-24T20:15:03.168Z,108.53
2022-09-24T20:20:10.522Z,109.40
2022-09-24T20:25:18.364Z,103.50
2022-09-24T20:30:25.684Z,89.18
2022-09-24T20:35:31.889Z,101.05
2022-09-24T20:40:42.901Z,85.82
2022-09-24T20:45:49.005Z,79.63
2022-09-24T20:50:57.194Z,82.50
2022-09-24T20:56:06.200Z,73.53
2022-09-24T21:06:23.146Z,72.93
2022-09-24T21:11:31.418Z,79.32
2022-09-24T21:16:37.966Z,79.75
2022-09-24T21:21:44.445Z,77.80
2022-09-24T21:26:51.853Z,95.45
2022-09-24T21:31:57.818Z,92.72
2022-09-24T21:37:04.297Z,97.57
2022-09-24T21:42:11.685Z,93.00
2022-09-24T21:47:18.382Z,95.70
2022-09-24T21:52:24.425Z,100.03
2022-09-24T21:57:32.145Z,94.60
2022-09-24T22:02:42.642Z,101.35
2022-09-24T22:07:49.577Z,84.18
2022-09-24T22:12:57.550Z,81.22
2022-09-24T22:18:03.915Z,78.68
2022-09-24T22:23:10.204Z,72.28
2022-09-24T22:28:20.671Z,81.07
2022-09-24T22:33:47.485Z,79.28
2022-09-24T22:38:56.276Z,64.78
2022-09-24T22:44:04.117Z,62.60
2022-09-24T22:49:11.139Z,57.65
2022-09-24T22:54:18.636Z,56.25
2022-09-24T22:59:25.993Z,53.25
2022-09-24T23:04:32.877Z,57.40
2022-09-24T23:09:38.968Z,56.30
2022-09-24T23:14:46.749Z,45.38
2022-09-24T23:19:53.041Z,48.67
2022-09-24T23:24:59.004Z,47.92
2022-09-24T23:30:07.763Z,44.17
2022-09-24T23:35:43.257Z,41.70
2022-09-24T23:40:51.136Z,40.28
2022-09-24T23:45:58.932Z,41.10
2022-09-24T23:51:04.898Z,36.40
2022-09-24T23:56:11.073Z,37.28
